Time;durP1;ratioP1;P1;durP2;ratioP2;P2;SDS_P1;SDS_P2;PMS_P1;PMS_P2;Temp;Humidity;BMP_temperature;BMP_pressure;BME280_temperature;BME280_humidity;BME280_pressure;Samples;Min_cycle;Max_cycle;Signal;HPM_P1;HPM_P2
2022/03/27 00:00:38;;;;;;;10.18;6.72;;;;;;;;;;5051379;28;20124;-69
2022/03/27 00:03:06;;;;;;;7.80;6.22;;;;;;;;;;5040054;28;20049;-69
2022/03/27 00:05:32;;;;;;;9.00;6.70;;;;;;;;;;5060961;28;20102;-68
2022/03/27 00:07:58;;;;;;;9.57;6.57;;;;;;;;;;5055139;28;20488;-68
2022/03/27 00:10:24;;;;;;;8.27;6.50;;;;;;;;;;5058889;28;20045;-69
2022/03/27 00:12:50;;;;;;;9.88;6.50;;;;;;;;;;5055077;28;20036;-68
2022/03/27 00:15:17;;;;;;;9.27;6.25;;;;;;;;;;5055613;28;20105;-69
2022/03/27 00:17:43;;;;;;;9.10;6.40;;;;;;;;;;5059078;28;20051;-68
2022/03/27 00:20:10;;;;;;;8.02;5.90;;;;;;;;;;5054553;28;20041;-68
2022/03/27 00:22:39;;;;;;;9.48;6.72;;;;;;;;;;5039478;28;20047;-69
2022/03/27 00:25:08;;;;;;;9.73;6.53;;;;;;;;;;5034629;28;20095;-69
2022/03/27 00:27:35;;;;;;;8.43;6.18;;;;;;;;;;5055811;28;20052;-68
2022/03/27 00:30:01;;;;;;;9.02;7.10;;;;;;;;;;5050301;28;20055;-68
2022/03/27 00:32:27;;;;;;;8.38;6.32;;;;;;;;;;5054402;28;20045;-69
2022/03/27 00:34:53;;;;;;;8.45;6.32;;;;;;;;;;5055275;28;20051;-69
2022/03/27 00:37:20;;;;;;;10.07;6.72;;;;;;;;;;5054019;28;20044;-68
2022/03/27 00:39:46;;;;;;;8.77;6.30;;;;;;;;;;5037525;28;20392;-68
2022/03/27 00:42:12;;;;;;;10.38;7.80;;;;;;;;;;5053976;28;20124;-69
2022/03/27 00:44:38;;;;;;;8.40;6.50;;;;;;;;;;5051131;28;20049;-68
2022/03/27 00:47:05;;;;;;;8.32;6.35;;;;;;;;;;5054477;28;20052;-69
2022/03/27 00:49:31;;;;;;;10.85;7.32;;;;;;;;;;5054170;28;20048;-69
2022/03/27 00:51:57;;;;;;;11.65;7.40;;;;;;;;;;5053407;28;20055;-69
2022/03/27 00:54:23;;;;;;;10.60;7.03;;;;;;;;;;5053867;28;20147;-69
2022/03/27 00:56:49;;;;;;;10.02;7.63;;;;;;;;;;5050106;28;20489;-69
2022/03/27 00:59:16;;;;;;;11.20;8.05;;;;;;;;;;5053567;28;20080;-69
2022/03/27 01:01:44;;;;;;;11.63;7.63;;;;;;;;;;5053830;28;20044;-69
2022/03/27 01:04:10;;;;;;;14.75;9.40;;;;;;;;;;5050623;28;20521;-69
2022/03/27 01:06:44;;;;;;;12.55;8.75;;;;;;;;;;5050094;28;20123;-69
2022/03/27 01:12:06;;;;;;;12.32;8.32;;;;;;;;;;5049689;28;20048;-68
2022/03/27 01:14:33;;;;;;;13.52;9.05;;;;;;;;;;5048113;28;20056;-68
2022/03/27 01:17:09;;;;;;;12.70;8.43;;;;;;;;;;5049613;28;20045;-68
2022/03/27 01:19:39;;;;;;;12.57;8.32;;;;;;;;;;5048631;28;20048;-68
2022/03/27 01:22:05;;;;;;;10.00;7.25;;;;;;;;;;5050064;28;20045;-68
2022/03/27 01:24:31;;;;;;;13.32;8.15;;;;;;;;;;5049308;28;20460;-68
2022/03/27 01:26:57;;;;;;;9.45;6.63;;;;;;;;;;5049032;28;20047;-68
2022/03/27 01:29:23;;;;;;;11.73;7.88;;;;;;;;;;5050290;28;20040;-68
2022/03/27 01:31:51;;;;;;;10.48;7.13;;;;;;;;;;5053586;28;20439;-69
2022/03/27 01:34:18;;;;;;;12.13;8.00;;;;;;;;;;5050185;28;20057;-68
2022/03/27 01:36:44;;;;;;;12.30;7.82;;;;;;;;;;5052078;28;20119;-68
2022/03/27 01:39:11;;;;;;;11.00;7.28;;;;;;;;;;5048644;28;20083;-68
2022/03/27 01:41:37;;;;;;;10.57;6.60;;;;;;;;;;5053191;28;20051;-68
2022/03/27 01:44:09;;;;;;;8.82;6.68;;;;;;;;;;5052078;28;20043;-68
2022/03/27 01:46:35;;;;;;;10.95;7.32;;;;;;;;;;5049151;28;20052;-68
2022/03/27 01:49:02;;;;;;;10.25;7.20;;;;;;;;;;5048102;28;20071;-68
2022/03/27 01:51:29;;;;;;;11.60;8.10;;;;;;;;;;5049060;28;20037;-69
2022/03/27 01:53:55;;;;;;;12.57;8.35;;;;;;;;;;5049139;28;20531;-68
2022/03/27 01:56:21;;;;;;;13.48;8.27;;;;;;;;;;5048827;28;20060;-68
2022/03/27 01:58:48;;;;;;;12.05;8.60;;;;;;;;;;5049811;28;20037;-68
2022/03/27 02:01:16;;;;;;;12.35;8.38;;;;;;;;;;5051283;28;20087;-68
2022/03/27 02:03:42;;;;;;;13.13;8.18;;;;;;;;;;5064304;28;20489;-68
2022/03/27 02:06:08;;;;;;;12.52;8.27;;;;;;;;;;5051821;28;20397;-68
2022/03/27 02:08:35;;;;;;;12.93;8.75;;;;;;;;;;5053366;28;20032;-68
2022/03/27 02:11:01;;;;;;;15.13;9.27;;;;;;;;;;5053384;28;20091;-68
2022/03/27 02:13:29;;;;;;;15.10;9.40;;;;;;;;;;5036708;28;20443;-68
2022/03/27 02:15:57;;;;;;;17.17;9.13;;;;;;;;;;5052882;28;20097;-68
2022/03/27 02:18:24;;;;;;;13.50;8.82;;;;;;;;;;5052981;28;20050;-68
2022/03/27 02:20:50;;;;;;;12.63;8.77;;;;;;;;;;5050006;28;20040;-68
2022/03/27 02:23:16;;;;;;;13.98;9.25;;;;;;;;;;5062390;28;20131;-68
2022/03/27 02:25:42;;;;;;;12.80;8.50;;;;;;;;;;5036782;28;20544;-68
2022/03/27 02:28:09;;;;;;;14.80;10.18;;;;;;;;;;5052358;28;20082;-68
2022/03/27 02:30:35;;;;;;;14.98;9.77;;;;;;;;;;5070548;28;20055;-68
2022/03/27 02:33:02;;;;;;;12.60;9.32;;;;;;;;;;5032649;28;20049;-68
2022/03/27 02:35:28;;;;;;;14.60;9.60;;;;;;;;;;5055233;28;20100;-68
2022/03/27 02:37:54;;;;;;;13.43;8.50;;;;;;;;;;5055977;28;20047;-68
2022/03/27 02:40:20;;;;;;;15.23;9.48;;;;;;;;;;5041879;28;20090;-68
2022/03/27 02:42:47;;;;;;;16.38;9.38;;;;;;;;;;5058412;28;20374;-68
2022/03/27 02:45:13;;;;;;;14.02;8.80;;;;;;;;;;5058666;28;20056;-68
2022/03/27 02:47:39;;;;;;;13.27;8.88;;;;;;;;;;5055327;28;20036;-68
2022/03/27 02:50:05;;;;;;;13.82;8.95;;;;;;;;;;5055462;28;20047;-68
2022/03/27 02:52:32;;;;;;;13.82;8.63;;;;;;;;;;5057362;28;20531;-68
2022/03/27 02:54:58;;;;;;;12.23;8.38;;;;;;;;;;5056989;28;20558;-67
2022/03/27 02:57:24;;;;;;;11.48;7.90;;;;;;;;;;5072656;28;20115;-68
2022/03/27 02:59:54;;;;;;;11.35;7.68;;;;;;;;;;5037078;28;20036;-69
2022/03/27 03:02:20;;;;;;;12.18;8.38;;;;;;;;;;5069365;28;20075;-67
2022/03/27 03:04:46;;;;;;;10.50;7.22;;;;;;;;;;5054528;28;20056;-68
2022/03/27 03:07:14;;;;;;;10.27;6.60;;;;;;;;;;5053934;28;20044;-68
2022/03/27 03:09:40;;;;;;;11.57;7.10;;;;;;;;;;5054352;28;20055;-68
2022/03/27 03:12:07;;;;;;;11.20;7.28;;;;;;;;;;5075379;28;20048;-69
2022/03/27 03:14:33;;;;;;;11.40;6.70;;;;;;;;;;5059963;28;20098;-69
2022/03/27 03:17:00;;;;;;;11.82;7.45;;;;;;;;;;5054548;28;20111;-68
2022/03/27 03:19:26;;;;;;;9.38;6.82;;;;;;;;;;5055719;28;20043;-68
2022/03/27 03:21:52;;;;;;;10.02;7.03;;;;;;;;;;5061279;28;20044;-68
2022/03/27 03:24:18;;;;;;;11.13;6.63;;;;;;;;;;5054110;28;20041;-68
2022/03/27 03:26:44;;;;;;;12.80;6.63;;;;;;;;;;5061161;28;20097;-68
2022/03/27 03:29:11;;;;;;;11.15;6.60;;;;;;;;;;5053212;28;20087;-68
2022/03/27 03:31:37;;;;;;;10.85;6.50;;;;;;;;;;5055889;28;20036;-68
2022/03/27 03:34:03;;;;;;;9.48;6.72;;;;;;;;;;5053068;28;20064;-68
2022/03/27 03:36:29;;;;;;;12.38;6.97;;;;;;;;;;5054504;28;20089;-68
2022/03/27 03:38:55;;;;;;;12.82;6.97;;;;;;;;;;5053178;28;20041;-68
2022/03/27 03:41:21;;;;;;;10.52;6.38;;;;;;;;;;5053857;28;20480;-67
2022/03/27 03:43:47;;;;;;;12.80;7.15;;;;;;;;;;5055523;28;20115;-68
2022/03/27 03:46:13;;;;;;;17.23;7.22;;;;;;;;;;5051506;28;20049;-68
2022/03/27 03:48:40;;;;;;;10.60;6.60;;;;;;;;;;5053008;28;20040;-68
2022/03/27 03:51:07;;;;;;;13.18;6.60;;;;;;;;;;5052234;28;20075;-68
2022/03/27 03:53:33;;;;;;;13.20;6.90;;;;;;;;;;5053434;28;20082;-68
2022/03/27 03:55:59;;;;;;;13.45;7.70;;;;;;;;;;5053007;28;20044;-67
2022/03/27 03:58:25;;;;;;;12.93;6.57;;;;;;;;;;5052638;28;20045;-68
2022/03/27 04:00:51;;;;;;;15.38;7.10;;;;;;;;;;5052081;28;20119;-67
2022/03/27 04:03:17;;;;;;;13.55;6.72;;;;;;;;;;5052545;28;20397;-67
2022/03/27 04:05:43;;;;;;;15.23;6.72;;;;;;;;;;5052685;28;20045;-68
2022/03/27 04:08:09;;;;;;;12.07;6.88;;;;;;;;;;5052381;28;20062;-67
2022/03/27 04:10:35;;;;;;;16.55;6.90;;;;;;;;;;5051401;28;20044;-68
2022/03/27 04:13:01;;;;;;;15.65;7.65;;;;;;;;;;5051526;28;20105;-68
2022/03/27 04:15:27;;;;;;;15.10;7.22;;;;;;;;;;5071479;28;20131;-68
2022/03/27 04:17:53;;;;;;;16.00;7.15;;;;;;;;;;5054503;28;20040;-68
2022/03/27 04:20:19;;;;;;;16.98;8.10;;;;;;;;;;5058072;28;20090;-68
2022/03/27 04:22:46;;;;;;;15.57;8.38;;;;;;;;;;5053808;28;20045;-68
2022/03/27 04:25:13;;;;;;;20.00;8.98;;;;;;;;;;5037198;28;20094;-68
2022/03/27 04:27:39;;;;;;;16.60;8.30;;;;;;;;;;5057645;28;20393;-68
2022/03/27 04:30:09;;;;;;;16.92;8.40;;;;;;;;;;5053852;28;20366;-68
2022/03/27 04:32:35;;;;;;;19.13;9.45;;;;;;;;;;5054173;28;20044;-68
2022/03/27 04:35:01;;;;;;;19.60;9.23;;;;;;;;;;5057489;28;20037;-68
2022/03/27 04:37:27;;;;;;;18.00;8.55;;;;;;;;;;5052762;28;20401;-68
2022/03/27 04:39:59;;;;;;;18.63;8.75;;;;;;;;;;5054294;28;20527;-68
2022/03/27 04:42:26;;;;;;;19.65;8.48;;;;;;;;;;5057866;28;20052;-68
2022/03/27 04:44:52;;;;;;;24.15;10.20;;;;;;;;;;5039165;28;20041;-68
2022/03/27 04:47:19;;;;;;;18.95;8.57;;;;;;;;;;5052795;28;20495;-68
2022/03/27 04:49:45;;;;;;;16.10;8.63;;;;;;;;;;5053150;28;20527;-68
2022/03/27 04:52:11;;;;;;;20.23;8.25;;;;;;;;;;5053030;28;20523;-68
2022/03/27 04:54:38;;;;;;;21.67;9.02;;;;;;;;;;5054036;28;20032;-68
2022/03/27 04:57:04;;;;;;;20.17;9.25;;;;;;;;;;5053291;28;20036;-68
2022/03/27 04:59:30;;;;;;;15.02;8.63;;;;;;;;;;5070194;28;20048;-68
2022/03/27 05:02:00;;;;;;;22.50;9.50;;;;;;;;;;5075651;28;20044;-68
2022/03/27 05:04:26;;;;;;;21.67;9.05;;;;;;;;;;5057790;28;20056;-68
2022/03/27 05:06:53;;;;;;;16.23;9.70;;;;;;;;;;5053644;28;20120;-68
2022/03/27 05:09:19;;;;;;;19.02;8.38;;;;;;;;;;5058284;28;20045;-68
2022/03/27 05:11:45;;;;;;;19.88;9.82;;;;;;;;;;5041615;28;20427;-68
2022/03/27 05:14:11;;;;;;;19.25;9.07;;;;;;;;;;5057136;28;20484;-68
2022/03/27 05:16:37;;;;;;;17.25;8.95;;;;;;;;;;5052267;28;20121;-68
2022/03/27 05:19:06;;;;;;;22.48;8.32;;;;;;;;;;5053712;28;20037;-68
2022/03/27 05:21:33;;;;;;;16.92;8.60;;;;;;;;;;5049190;28;20104;-69
2022/03/27 05:23:59;;;;;;;24.73;9.10;;;;;;;;;;5037823;28;20067;-72
2022/03/27 05:26:26;;;;;;;19.95;9.90;;;;;;;;;;5056079;28;20045;-69
2022/03/27 05:28:52;;;;;;;24.63;9.27;;;;;;;;;;5053799;28;20123;-67
2022/03/27 05:31:19;;;;;;;29.15;9.63;;;;;;;;;;5059436;28;20041;-68
2022/03/27 05:33:46;;;;;;;23.58;8.63;;;;;;;;;;5052678;28;20058;-68
2022/03/27 05:36:12;;;;;;;21.58;8.38;;;;;;;;;;5072221;28;20489;-68
2022/03/27 05:38:39;;;;;;;19.50;8.27;;;;;;;;;;5053452;28;20531;-68
2022/03/27 05:41:06;;;;;;;15.63;7.80;;;;;;;;;;5056841;28;20055;-68
2022/03/27 05:43:32;;;;;;;19.25;7.90;;;;;;;;;;5033690;28;20040;-68
2022/03/27 05:45:58;;;;;;;23.75;8.10;;;;;;;;;;5051030;28;20068;-68
2022/03/27 05:48:24;;;;;;;17.95;8.43;;;;;;;;;;5051000;28;20119;-68
2022/03/27 05:50:50;;;;;;;20.38;8.50;;;;;;;;;;5052313;28;20546;-68
2022/03/27 05:53:16;;;;;;;21.60;8.35;;;;;;;;;;5049641;28;20845;-68
2022/03/27 05:55:42;;;;;;;20.35;8.38;;;;;;;;;;5052454;28;20503;-68
2022/03/27 05:58:08;;;;;;;23.88;8.35;;;;;;;;;;5052605;28;20087;-68
2022/03/27 06:00:34;;;;;;;23.98;9.30;;;;;;;;;;5052056;28;20182;-68
2022/03/27 06:03:01;;;;;;;20.20;8.88;;;;;;;;;;5052484;28;20485;-68
2022/03/27 06:05:27;;;;;;;23.65;9.30;;;;;;;;;;5071099;28;20055;-68
2022/03/27 06:07:53;;;;;;;24.48;9.18;;;;;;;;;;5052351;28;20120;-68
2022/03/27 06:10:21;;;;;;;18.58;7.50;;;;;;;;;;5054983;28;20527;-68
2022/03/27 06:12:47;;;;;;;20.33;8.93;;;;;;;;;;5056923;28;20048;-68
2022/03/27 06:15:14;;;;;;;25.50;8.73;;;;;;;;;;5058676;28;20069;-68
2022/03/27 06:17:44;;;;;;;19.50;8.45;;;;;;;;;;5042098;28;20500;-68
2022/03/27 06:20:12;;;;;;;23.83;9.00;;;;;;;;;;5056906;28;20040;-68
2022/03/27 06:22:39;;;;;;;26.27;9.18;;;;;;;;;;5056990;28;20443;-68
2022/03/27 06:25:06;;;;;;;25.63;9.55;;;;;;;;;;5056706;28;20086;-68
2022/03/27 06:27:32;;;;;;;24.52;8.88;;;;;;;;;;5056898;28;20072;-68
2022/03/27 06:29:58;;;;;;;22.80;9.05;;;;;;;;;;5056732;28;20093;-69
2022/03/27 06:32:27;;;;;;;22.25;8.10;;;;;;;;;;5061683;28;20110;-68
2022/03/27 06:34:57;;;;;;;25.23;9.45;;;;;;;;;;5056868;28;20144;-69
2022/03/27 06:37:24;;;;;;;20.85;9.30;;;;;;;;;;5033600;28;20496;-68
2022/03/27 06:39:50;;;;;;;23.30;8.85;;;;;;;;;;5059765;28;20064;-68
2022/03/27 06:42:16;;;;;;;29.98;9.90;;;;;;;;;;5059956;28;20477;-68
2022/03/27 06:44:42;;;;;;;28.23;9.63;;;;;;;;;;5055551;28;20496;-68
2022/03/27 06:47:09;;;;;;;35.92;9.82;;;;;;;;;;5039169;28;20040;-68
2022/03/27 06:49:35;;;;;;;29.73;10.07;;;;;;;;;;5039854;28;20044;-68
2022/03/27 06:52:02;;;;;;;29.17;9.80;;;;;;;;;;5061654;28;20044;-68
2022/03/27 06:54:31;;;;;;;28.27;11.65;;;;;;;;;;5055433;28;20047;-68
2022/03/27 06:56:57;;;;;;;29.75;8.90;;;;;;;;;;5055792;28;20426;-68
2022/03/27 06:59:24;;;;;;;35.22;9.75;;;;;;;;;;5055978;28;20053;-68
2022/03/27 07:04:35;;;;;;;35.28;8.80;;;;;;;;;;5066966;28;20071;-68
2022/03/27 07:07:01;;;;;;;32.63;9.20;;;;;;;;;;5054208;28;20056;-68
2022/03/27 07:09:27;;;;;;;28.63;9.98;;;;;;;;;;5054816;28;20083;-68
2022/03/27 07:11:53;;;;;;;30.70;9.38;;;;;;;;;;5056358;28;20070;-68
2022/03/27 07:14:20;;;;;;;29.33;9.57;;;;;;;;;;5039612;28;20461;-68
2022/03/27 07:16:46;;;;;;;31.95;10.20;;;;;;;;;;5055556;28;20057;-68
2022/03/27 07:19:14;;;;;;;27.10;8.98;;;;;;;;;;5048701;28;20470;-68
2022/03/27 07:21:42;;;;;;;36.80;10.80;;;;;;;;;;5071135;28;20366;-69
2022/03/27 07:24:08;;;;;;;35.45;10.15;;;;;;;;;;5053791;28;20062;-67
2022/03/27 07:26:35;;;;;;;37.42;9.77;;;;;;;;;;5055315;28;20434;-68
2022/03/27 07:29:02;;;;;;;35.22;10.60;;;;;;;;;;5073725;28;20075;-67
2022/03/27 07:31:28;;;;;;;31.23;9.90;;;;;;;;;;5047992;28;20045;-68
2022/03/27 07:33:55;;;;;;;32.65;9.50;;;;;;;;;;5055698;28;20463;-69
2022/03/27 07:36:21;;;;;;;35.20;10.13;;;;;;;;;;5054375;28;20044;-69
2022/03/27 07:38:47;;;;;;;32.70;9.98;;;;;;;;;;5053737;28;20071;-69
2022/03/27 07:41:13;;;;;;;34.90;10.43;;;;;;;;;;5054508;28;20434;-68
2022/03/27 07:43:40;;;;;;;30.25;10.45;;;;;;;;;;5054829;28;20040;-68
2022/03/27 07:46:06;;;;;;;37.60;10.57;;;;;;;;;;5056001;28;20389;-68
2022/03/27 07:48:32;;;;;;;28.73;8.82;;;;;;;;;;5055601;28;20062;-68
2022/03/27 07:50:58;;;;;;;36.47;10.75;;;;;;;;;;5053763;28;20120;-68
2022/03/27 07:53:24;;;;;;;33.63;9.65;;;;;;;;;;5054519;28;20047;-68
2022/03/27 07:55:50;;;;;;;32.85;10.23;;;;;;;;;;5051385;28;20508;-68
2022/03/27 07:58:17;;;;;;;30.25;9.77;;;;;;;;;;5049861;28;20044;-68
2022/03/27 08:00:43;;;;;;;35.67;9.60;;;;;;;;;;5054824;28;20059;-68
2022/03/27 08:03:09;;;;;;;35.40;10.43;;;;;;;;;;5049860;28;20195;-69
2022/03/27 08:05:35;;;;;;;27.75;9.68;;;;;;;;;;5048848;28;20044;-68
2022/03/27 08:08:01;;;;;;;40.83;10.15;;;;;;;;;;5057580;28;20396;-68
2022/03/27 08:10:27;;;;;;;31.38;10.00;;;;;;;;;;5051946;28;20049;-69
2022/03/27 08:12:54;;;;;;;38.95;11.25;;;;;;;;;;5054400;28;20049;-69
2022/03/27 08:15:21;;;;;;;30.80;10.27;;;;;;;;;;5070437;28;20048;-69
2022/03/27 08:17:47;;;;;;;31.48;9.52;;;;;;;;;;5038866;28;20116;-68
2022/03/27 08:20:13;;;;;;;37.40;10.02;;;;;;;;;;5054978;28;20032;-69
2022/03/27 08:22:39;;;;;;;33.35;9.57;;;;;;;;;;5054798;28;20089;-68
2022/03/27 08:25:06;;;;;;;33.63;9.32;;;;;;;;;;5052794;28;20528;-69
2022/03/27 08:27:32;;;;;;;34.30;9.05;;;;;;;;;;5037679;28;20055;-69
2022/03/27 08:29:59;;;;;;;30.52;8.48;;;;;;;;;;5053699;28;20033;-68
2022/03/27 08:32:25;;;;;;;31.88;9.20;;;;;;;;;;5038598;28;20047;-69
2022/03/27 08:34:51;;;;;;;33.15;8.50;;;;;;;;;;5053408;28;20128;-68
2022/03/27 08:37:18;;;;;;;35.92;8.45;;;;;;;;;;5051940;28;20041;-68
2022/03/27 08:39:47;;;;;;;29.23;7.88;;;;;;;;;;5057854;28;20040;-68
2022/03/27 08:42:14;;;;;;;34.53;8.60;;;;;;;;;;5056875;28;20041;-69
2022/03/27 08:44:40;;;;;;;25.73;8.02;;;;;;;;;;5056688;28;20048;-69
2022/03/27 08:47:12;;;;;;;29.02;8.05;;;;;;;;;;5054505;28;20091;-69
2022/03/27 08:49:42;;;;;;;31.38;9.30;;;;;;;;;;5056325;28;20040;-69
2022/03/27 08:52:17;;;;;;;32.72;9.00;;;;;;;;;;5056076;28;20066;-69
2022/03/27 08:54:47;;;;;;;32.75;8.25;;;;;;;;;;5058054;28;20091;-69
2022/03/27 08:57:26;;;;;;;31.98;8.50;;;;;;;;;;5051922;28;20036;-69
2022/03/27 08:59:53;;;;;;;32.40;8.45;;;;;;;;;;5048284;28;20063;-69
2022/03/27 09:02:22;;;;;;;30.63;8.38;;;;;;;;;;5052073;28;20037;-69
2022/03/27 09:04:50;;;;;;;27.40;8.48;;;;;;;;;;5051650;28;20056;-68
2022/03/27 09:07:16;;;;;;;32.88;9.60;;;;;;;;;;5052479;28;20051;-69
2022/03/27 09:09:42;;;;;;;30.65;9.38;;;;;;;;;;5057102;28;20040;-69
2022/03/27 09:12:08;;;;;;;37.03;10.00;;;;;;;;;;5075964;28;20119;-69
2022/03/27 09:14:35;;;;;;;33.50;9.00;;;;;;;;;;5055219;28;20048;-69
2022/03/27 09:17:01;;;;;;;38.38;9.43;;;;;;;;;;5053940;28;20548;-69
2022/03/27 09:19:34;;;;;;;35.13;9.68;;;;;;;;;;5051690;28;20489;-68
2022/03/27 09:22:00;;;;;;;29.13;9.63;;;;;;;;;;5048088;28;20036;-69
2022/03/27 09:24:34;;;;;;;33.63;8.10;;;;;;;;;;5069738;28;20071;-69
2022/03/27 09:27:00;;;;;;;30.50;8.32;;;;;;;;;;5052356;28;20094;-69
2022/03/27 09:29:26;;;;;;;42.50;9.93;;;;;;;;;;5052451;28;20049;-69
2022/03/27 09:31:59;;;;;;;41.15;9.50;;;;;;;;;;5068826;28;20134;-69
2022/03/27 09:34:25;;;;;;;38.30;8.63;;;;;;;;;;5070149;28;20059;-69
2022/03/27 09:36:52;;;;;;;32.67;8.00;;;;;;;;;;5034591;28;20064;-69
2022/03/27 09:39:22;;;;;;;31.65;8.38;;;;;;;;;;5051830;28;20044;-69
2022/03/27 09:42:03;;;;;;;28.88;7.35;;;;;;;;;;5051619;28;20460;-69
2022/03/27 09:44:30;;;;;;;28.80;6.78;;;;;;;;;;5054152;28;20044;-69
2022/03/27 09:46:57;;;;;;;26.90;7.32;;;;;;;;;;5052349;28;20044;-69
2022/03/27 09:49:25;;;;;;;31.25;6.78;;;;;;;;;;5051998;28;20048;-69
2022/03/27 09:51:56;;;;;;;26.95;6.30;;;;;;;;;;5037168;28;20125;-69
2022/03/27 09:54:22;;;;;;;29.35;7.20;;;;;;;;;;5070503;28;20178;-69
2022/03/27 09:56:49;;;;;;;25.80;7.03;;;;;;;;;;5053998;28;20047;-69
2022/03/27 09:59:34;;;;;;;27.42;7.00;;;;;;;;;;5053285;28;20052;-68
2022/03/27 10:02:17;;;;;;;26.88;6.45;;;;;;;;;;5052092;28;20041;-69
2022/03/27 10:04:53;;;;;;;29.50;6.25;;;;;;;;;;5049400;28;20064;-68
2022/03/27 10:07:19;;;;;;;;;;;;;;;;;;5052691;28;20048;-69
2022/03/27 10:09:45;;;;;;;25.80;6.65;;;;;;;;;;5051541;28;19931;-69
2022/03/27 10:12:13;;;;;;;31.38;6.93;;;;;;;;;;5052052;28;20096;-69
2022/03/27 10:14:41;;;;;;;20.92;5.78;;;;;;;;;;5051136;28;20052;-68
2022/03/27 10:17:08;;;;;;;29.10;6.00;;;;;;;;;;5056717;28;20033;-68
2022/03/27 10:19:38;;;;;;;30.40;5.85;;;;;;;;;;5051789;28;20067;-68
2022/03/27 10:22:05;;;;;;;26.23;6.30;;;;;;;;;;5052272;28;20041;-69
2022/03/27 10:24:32;;;;;;;23.10;6.55;;;;;;;;;;5051910;28;20037;-69
2022/03/27 10:27:02;;;;;;;25.90;5.05;;;;;;;;;;5050573;28;20044;-69
2022/03/27 10:29:29;;;;;;;23.15;5.70;;;;;;;;;;5051283;28;20055;-69
2022/03/27 10:31:55;;;;;;;28.33;5.95;;;;;;;;;;5051313;28;20063;-69
2022/03/27 10:34:22;;;;;;;28.63;5.65;;;;;;;;;;5051329;28;20915;-69
2022/03/27 10:37:10;;;;;;;24.00;5.53;;;;;;;;;;5051063;28;20043;-69
2022/03/27 10:39:44;;;;;;;22.85;5.45;;;;;;;;;;5048893;28;20040;-69
2022/03/27 10:42:16;;;;;;;26.08;5.85;;;;;;;;;;5050533;28;20460;-69
2022/03/27 10:44:45;;;;;;;21.50;5.28;;;;;;;;;;5049729;28;20037;-69
2022/03/27 10:47:11;;;;;;;24.90;5.72;;;;;;;;;;5051060;28;20090;-69
2022/03/27 10:49:37;;;;;;;16.73;5.03;;;;;;;;;;5052755;28;20550;-69
2022/03/27 10:52:04;;;;;;;24.45;5.40;;;;;;;;;;5053347;28;20071;-69
2022/03/27 10:54:30;;;;;;;21.80;5.47;;;;;;;;;;5052801;28;20044;-69
2022/03/27 10:56:57;;;;;;;26.08;5.75;;;;;;;;;;5053876;28;20059;-68
2022/03/27 10:59:24;;;;;;;22.52;5.57;;;;;;;;;;5045021;28;20111;-69
2022/03/27 11:01:51;;;;;;;22.23;5.13;;;;;;;;;;5057559;28;20043;-69
2022/03/27 11:04:37;;;;;;;23.95;5.32;;;;;;;;;;5055200;28;20074;-70
2022/03/27 11:07:16;;;;;;;18.52;4.70;;;;;;;;;;5054869;28;20622;-69
2022/03/27 11:09:44;;;;;;;23.40;4.75;;;;;;;;;;5054500;28;20048;-69
2022/03/27 11:12:24;;;;;;;29.33;6.05;;;;;;;;;;5067664;28;20051;-69
2022/03/27 11:14:53;;;;;;;23.38;5.45;;;;;;;;;;5049306;28;20645;-71
2022/03/27 11:17:32;;;;;;;18.25;4.88;;;;;;;;;;5056222;28;20614;-70
2022/03/27 11:19:59;;;;;;;22.90;5.28;;;;;;;;;;5059049;28;20129;-71
2022/03/27 11:22:44;;;;;;;23.05;5.70;;;;;;;;;;5059378;28;20036;-71
2022/03/27 11:25:23;;;;;;;23.92;5.00;;;;;;;;;;5053762;28;20059;-70
2022/03/27 11:27:54;;;;;;;18.92;4.57;;;;;;;;;;5037369;28;20044;-71
2022/03/27 11:30:20;;;;;;;18.90;4.78;;;;;;;;;;5050272;28;20557;-71
2022/03/27 11:33:05;;;;;;;21.25;4.45;;;;;;;;;;5059258;28;20508;-70
2022/03/27 11:35:31;;;;;;;23.58;5.40;;;;;;;;;;5053605;28;20037;-70
2022/03/27 11:38:16;;;;;;;20.35;4.90;;;;;;;;;;5058331;28;20036;-71
2022/03/27 11:40:42;;;;;;;18.83;4.45;;;;;;;;;;5038122;28;20067;-70
2022/03/27 11:43:31;;;;;;;19.85;3.83;;;;;;;;;;5052202;28;20503;-71
2022/03/27 11:45:58;;;;;;;20.58;4.32;;;;;;;;;;5052609;28;20032;-71
2022/03/27 11:48:24;;;;;;;20.83;4.38;;;;;;;;;;5053567;28;20047;-71
2022/03/27 11:50:50;;;;;;;19.00;4.38;;;;;;;;;;5050872;28;20087;-71
2022/03/27 11:53:17;;;;;;;17.70;4.63;;;;;;;;;;5053532;28;20062;-71
2022/03/27 11:55:43;;;;;;;20.02;4.47;;;;;;;;;;5058780;28;20111;-70
2022/03/27 11:58:11;;;;;;;16.00;3.85;;;;;;;;;;5049436;28;20094;-70
2022/03/27 12:00:45;;;;;;;20.23;4.55;;;;;;;;;;5053167;28;20036;-72
2022/03/27 12:03:18;;;;;;;19.00;4.47;;;;;;;;;;5049695;28;20117;-70
2022/03/27 12:05:45;;;;;;;22.08;4.55;;;;;;;;;;5053010;28;20036;-70
2022/03/27 12:08:15;;;;;;;18.27;4.32;;;;;;;;;;5053814;28;20079;-70
2022/03/27 12:10:42;;;;;;;16.85;4.47;;;;;;;;;;5054202;28;20052;-69
2022/03/27 12:13:08;;;;;;;22.23;5.38;;;;;;;;;;5053705;28;20044;-70
2022/03/27 12:15:38;;;;;;;22.02;5.05;;;;;;;;;;5054234;28;20044;-70
2022/03/27 12:18:05;;;;;;;20.55;4.80;;;;;;;;;;5054021;28;20072;-70
2022/03/27 12:20:40;;;;;;;20.92;4.68;;;;;;;;;;5050541;28;20037;-70
2022/03/27 12:23:16;;;;;;;14.13;4.00;;;;;;;;;;5054772;28;20072;-70
2022/03/27 12:25:42;;;;;;;19.70;4.18;;;;;;;;;;5038191;28;20044;-70
2022/03/27 12:30:53;;;;;;;17.10;4.05;;;;;;;;;;5053622;28;20114;-70
2022/03/27 12:33:20;;;;;;;18.25;4.20;;;;;;;;;;5054712;28;20079;-70
2022/03/27 12:35:47;;;;;;;16.65;3.92;;;;;;;;;;5051437;28;20076;-70
2022/03/27 12:38:14;;;;;;;16.52;4.20;;;;;;;;;;5054706;28;20361;-70
2022/03/27 12:40:44;;;;;;;20.90;4.05;;;;;;;;;;5054875;28;20433;-70
2022/03/27 12:43:11;;;;;;;19.77;5.43;;;;;;;;;;5054476;28;20047;-70
2022/03/27 12:45:40;;;;;;;16.02;4.50;;;;;;;;;;5058324;28;20040;-70
2022/03/27 12:48:09;;;;;;;17.15;4.05;;;;;;;;;;5032459;28;20056;-70
2022/03/27 12:50:36;;;;;;;17.63;4.20;;;;;;;;;;5039094;28;20044;-70
2022/03/27 12:53:12;;;;;;;19.48;4.15;;;;;;;;;;5037338;28;20055;-70
2022/03/27 12:55:48;;;;;;;16.63;4.30;;;;;;;;;;5038355;28;20044;-70
2022/03/27 12:58:18;;;;;;;17.15;4.18;;;;;;;;;;5054567;28;20041;-70
2022/03/27 13:00:45;;;;;;;15.57;4.43;;;;;;;;;;5058271;28;20085;-69
2022/03/27 13:03:18;;;;;;;15.13;3.92;;;;;;;;;;5041910;28;20125;-69
2022/03/27 13:05:56;;;;;;;17.05;4.28;;;;;;;;;;5058161;28;20119;-70
2022/03/27 13:08:34;;;;;;;17.85;4.15;;;;;;;;;;5050058;28;20045;-70
2022/03/27 13:11:03;;;;;;;13.60;3.67;;;;;;;;;;5053143;28;20037;-70
2022/03/27 13:13:37;;;;;;;19.33;4.15;;;;;;;;;;5054158;28;20045;-70
2022/03/27 13:16:19;;;;;;;14.02;3.90;;;;;;;;;;5053583;28;20140;-70
2022/03/27 13:18:56;;;;;;;18.50;4.50;;;;;;;;;;5053140;28;20070;-70
2022/03/27 13:21:22;;;;;;;16.02;3.70;;;;;;;;;;5053818;28;20119;-70
2022/03/27 13:23:48;;;;;;;14.45;4.00;;;;;;;;;;5053719;28;20115;-70
2022/03/27 13:26:14;;;;;;;16.02;4.65;;;;;;;;;;5053576;28;20569;-70
2022/03/27 13:28:40;;;;;;;18.52;4.00;;;;;;;;;;5052466;28;20517;-70
2022/03/27 13:31:13;;;;;;;18.85;4.65;;;;;;;;;;5056905;28;20520;-70
2022/03/27 13:33:39;;;;;;;14.70;4.35;;;;;;;;;;5053924;28;20067;-70
2022/03/27 13:36:06;;;;;;;17.42;4.68;;;;;;;;;;5056540;28;20124;-70
2022/03/27 13:38:32;;;;;;;15.48;4.13;;;;;;;;;;5057757;28;20043;-70
2022/03/27 13:43:43;;;;;;;12.30;3.67;;;;;;;;;;5056950;28;20546;-70
2022/03/27 13:46:09;;;;;;;12.18;3.60;;;;;;;;;;5052943;28;20467;-70
2022/03/27 13:48:35;;;;;;;12.15;3.65;;;;;;;;;;5051447;28;20083;-70
2022/03/27 13:51:01;;;;;;;16.73;3.80;;;;;;;;;;5052980;28;20068;-70
2022/03/27 13:53:28;;;;;;;11.35;3.40;;;;;;;;;;5035894;28;20041;-70
2022/03/27 13:55:54;;;;;;;13.70;3.53;;;;;;;;;;5052579;28;20048;-70
2022/03/27 13:58:20;;;;;;;16.17;4.18;;;;;;;;;;5053369;28;20195;-70
2022/03/27 14:00:46;;;;;;;12.68;3.63;;;;;;;;;;5019950;28;20045;-70
2022/03/27 14:03:12;;;;;;;17.08;4.18;;;;;;;;;;5053346;28;20059;-70
2022/03/27 14:05:39;;;;;;;15.52;3.90;;;;;;;;;;5051019;28;20477;-70
2022/03/27 14:08:05;;;;;;;14.38;3.60;;;;;;;;;;5053305;28;20055;-70
2022/03/27 14:10:32;;;;;;;16.65;3.78;;;;;;;;;;5053254;28;20045;-70
2022/03/27 14:12:58;;;;;;;12.48;3.67;;;;;;;;;;5049020;28;20051;-69
2022/03/27 14:15:24;;;;;;;20.02;4.20;;;;;;;;;;5049912;28;20463;-69
2022/03/27 14:17:51;;;;;;;15.13;3.75;;;;;;;;;;5050268;28;20388;-70
2022/03/27 14:20:17;;;;;;;14.30;3.67;;;;;;;;;;5052149;28;20068;-70
2022/03/27 14:22:44;;;;;;;15.02;3.97;;;;;;;;;;5052412;28;20439;-70
2022/03/27 14:25:11;;;;;;;15.65;4.00;;;;;;;;;;5048008;28;20061;-70
2022/03/27 14:27:38;;;;;;;16.65;4.47;;;;;;;;;;5051323;28;20048;-69
2022/03/27 14:30:04;;;;;;;17.70;4.07;;;;;;;;;;5039337;28;20090;-70
2022/03/27 14:32:30;;;;;;;16.52;4.10;;;;;;;;;;5053463;28;20049;-69
2022/03/27 14:34:58;;;;;;;16.17;4.22;;;;;;;;;;5052526;28;20041;-69
2022/03/27 14:37:25;;;;;;;13.85;3.60;;;;;;;;;;5052874;28;20048;-70
2022/03/27 14:39:52;;;;;;;16.67;3.67;;;;;;;;;;5039501;28;20064;-70
2022/03/27 14:42:18;;;;;;;15.55;4.00;;;;;;;;;;5055803;28;20116;-70
2022/03/27 14:44:44;;;;;;;13.50;4.18;;;;;;;;;;5052758;28;20133;-69